Time;durP1;ratioP1;P1;durP2;ratioP2;P2;SDS_P1;SDS_P2;PMS_P1;PMS_P2;Temp;Humidity;BMP_temperature;BMP_pressure;BME280_temperature;BME280_humidity;BME280_pressure;Samples;Min_cycle;Max_cycle;Signal;HPM_P1;HPM_P2
2021/04/03 00:00:50;;;;;;;7.50;4.72;;;7.00;56.20;;;;;;6046302;23;20021;-83
2021/04/03 00:03:18;;;;;;;8.23;4.85;;;7.00;55.20;;;;;;6047467;23;20098;-83
2021/04/03 00:05:44;;;;;;;6.75;4.50;;;7.00;55.20;;;;;;6046553;23;20017;-83
2021/04/03 00:08:11;;;;;;;9.65;5.10;;;7.00;55.20;;;;;;6022602;23;20013;-83
2021/04/03 00:11:03;;;;;;;6.55;4.60;;;7.00;55.30;;;;;;6046133;23;20021;-82
2021/04/03 00:13:33;;;;;;;7.25;4.53;;;7.00;55.30;;;;;;6030214;23;20096;-83
2021/04/03 00:16:00;;;;;;;8.88;4.72;;;7.00;55.20;;;;;;6087447;23;20035;-82
2021/04/03 00:18:26;;;;;;;7.97;4.85;;;6.90;55.20;;;;;;6092655;23;20017;-82
2021/04/03 00:20:52;;;;;;;5.47;4.22;;;7.00;55.20;;;;;;6043092;23;20044;-80
2021/04/03 00:23:20;;;;;;;7.00;4.22;;;6.90;55.40;;;;;;6050165;23;20024;-83
2021/04/03 00:25:46;;;;;;;6.60;4.55;;;6.90;55.70;;;;;;6072896;23;20013;-83
2021/04/03 00:28:12;;;;;;;6.95;4.35;;;6.80;55.90;;;;;;6046125;23;20084;-82
2021/04/03 00:30:39;;;;;;;7.90;4.90;;;6.80;55.90;;;;;;6069908;23;20017;-83
2021/04/03 00:33:08;;;;;;;10.93;5.15;;;6.80;55.80;;;;;;6023515;23;20028;-81
2021/04/03 00:35:42;;;;;;;5.95;4.55;;;6.80;55.70;;;;;;6023736;23;20013;-81
2021/04/03 00:38:09;;;;;;;8.27;4.95;;;6.80;55.60;;;;;;6046385;23;20017;-83
2021/04/03 00:40:44;;;;;;;6.65;4.70;;;6.80;55.60;;;;;;6045527;23;20023;-82
2021/04/03 00:43:16;;;;;;;4.47;3.80;;;6.70;55.80;;;;;;6069870;23;20013;-83
2021/04/03 00:45:43;;;;;;;5.75;4.40;;;6.70;56.30;;;;;;6046419;23;20080;-83
2021/04/03 00:48:10;;;;;;;7.18;4.75;;;6.70;56.60;;;;;;6046493;23;20021;-83
2021/04/03 00:50:42;;;;;;;9.80;4.75;;;6.60;56.60;;;;;;5999171;23;20021;-82
2021/04/03 00:53:10;;;;;;;7.60;4.60;;;6.60;56.70;;;;;;6046228;23;20032;-82
2021/04/03 00:55:36;;;;;;;10.40;4.65;;;6.60;56.70;;;;;;6069455;23;20032;-82
2021/04/03 00:58:02;;;;;;;9.02;4.50;;;6.60;56.50;;;;;;6046346;23;20009;-82
2021/04/03 01:00:29;;;;;;;7.90;5.15;;;6.60;56.40;;;;;;6021929;23;20021;-81
2021/04/03 01:02:55;;;;;;;7.03;4.78;;;6.60;56.30;;;;;;6045747;23;20492;-82
2021/04/03 01:05:24;;;;;;;8.15;5.47;;;6.60;56.40;;;;;;6069323;23;20088;-82
2021/04/03 01:07:50;;;;;;;8.77;4.28;;;6.60;56.50;;;;;;6022642;23;20028;-82
2021/04/03 01:10:30;;;;;;;7.45;4.75;;;6.60;57.00;;;;;;6021761;23;20013;-83
2021/04/03 01:13:23;;;;;;;7.00;4.93;;;6.60;57.10;;;;;;6071830;23;20083;-83
2021/04/03 01:16:17;;;;;;;6.07;4.10;;;6.50;57.10;;;;;;6049045;23;20199;-84
2021/04/03 01:19:05;;;;;;;7.20;4.88;;;6.50;57.20;;;;;;6050629;23;20014;-83
2021/04/03 01:22:16;;;;;;;6.10;4.57;;;6.50;57.60;;;;;;6048652;23;20024;-83
2021/04/03 01:25:11;;;;;;;9.05;4.60;;;6.50;58.00;;;;;;6073745;23;20083;-85
2021/04/03 01:28:10;;;;;;;7.57;4.53;;;6.40;58.10;;;;;;6044679;23;20461;-85
2021/04/03 01:30:36;;;;;;;4.15;2.92;;;6.40;58.70;;;;;;5984725;23;20048;-85
2021/04/03 01:33:09;;;;;;;6.65;5.07;;;6.40;58.50;;;;;;6045233;23;20083;-84
2021/04/03 01:35:44;;;;;;;8.30;5.28;;;6.40;58.40;;;;;;6022270;23;20052;-83
2021/04/03 01:38:37;;;;;;;10.65;5.28;;;6.40;58.20;;;;;;6048148;23;20149;-83
2021/04/03 01:41:04;;;;;;;11.65;5.40;;;6.50;58.00;;;;;;6045092;23;20025;-84
2021/04/03 01:43:37;;;;;;;9.07;5.78;;;6.50;57.60;;;;;;5998344;23;20499;-83
2021/04/03 01:46:03;;;;;;;7.20;5.03;;;6.60;57.40;;;;;;6048024;23;20032;-82
2021/04/03 01:48:30;;;;;;;9.32;5.32;;;6.60;57.50;;;;;;6024040;23;20013;-82
2021/04/03 01:50:56;;;;;;;12.20;5.65;;;6.60;57.40;;;;;;6046157;23;20464;-82
2021/04/03 01:53:24;;;;;;;7.97;5.50;;;6.60;57.40;;;;;;6069873;23;20021;-83
2021/04/03 01:55:52;;;;;;;9.38;5.00;;;6.60;58.40;;;;;;6069768;23;20051;-82
2021/04/03 01:58:18;;;;;;;8.43;5.55;;;6.60;57.30;;;;;;6021507;23;20029;-82
2021/04/03 02:00:46;;;;;;;10.52;5.38;;;6.60;58.40;;;;;;6044084;23;20013;-82
2021/04/03 02:03:12;;;;;;;7.72;5.22;;;6.60;57.30;;;;;;6021508;23;20358;-83
2021/04/03 02:05:39;;;;;;;8.00;5.65;;;6.60;57.60;;;;;;6046293;23;20022;-83
2021/04/03 02:08:06;;;;;;;7.50;5.72;;;6.60;57.60;;;;;;6022466;23;20024;-82
2021/04/03 02:10:33;;;;;;;8.05;5.35;;;6.60;57.60;;;;;;6021087;23;20021;-83
2021/04/03 02:13:00;;;;;;;7.13;4.95;;;6.60;57.70;;;;;;6021420;23;20028;-83
2021/04/03 02:15:27;;;;;;;10.13;5.70;;;6.60;57.90;;;;;;6045673;23;20029;-82
2021/04/03 02:17:56;;;;;;;8.25;4.88;;;6.60;58.10;;;;;;6021184;23;20013;-83
2021/04/03 02:20:22;;;;;;;7.50;4.93;;;6.60;58.40;;;;;;5999436;23;20350;-83
2021/04/03 02:22:49;;;;;;;8.70;5.60;;;6.60;59.70;;;;;;6044748;23;20022;-83
2021/04/03 02:25:16;;;;;;;7.75;5.38;;;6.60;58.80;;;;;;6046699;23;20017;-83
2021/04/03 02:27:44;;;;;;;7.75;5.50;;;6.60;59.00;;;;;;6045874;23;20022;-83
2021/04/03 02:30:16;;;;;;;8.07;4.35;;;6.60;60.20;;;;;;6067577;23;20032;-83
2021/04/03 02:32:48;;;;;;;2.40;2.30;;;6.60;59.20;;;;;;6091557;23;20017;-86
2021/04/03 02:35:18;;;;;;;6.00;3.88;;;6.60;60.40;;;;;;6050151;23;20028;-86
2021/04/03 02:37:46;;;;;;;12.57;5.20;;;6.50;60.60;;;;;;6054773;23;20021;-85
2021/04/03 02:40:16;;;;;;;7.20;4.53;;;6.50;60.40;;;;;;6031430;23;20013;-85
2021/04/03 02:43:02;;;;;;;7.43;5.07;;;6.60;60.30;;;;;;6052304;23;20133;-87
2021/04/03 02:45:31;;;;;;;12.77;5.80;;;6.70;59.90;;;;;;6025887;23;20021;-86
2021/04/03 02:48:04;;;;;;;10.35;5.80;;;6.70;59.30;;;;;;6048359;23;20813;-86
2021/04/03 02:50:34;;;;;;;13.32;6.22;;;6.90;59.00;;;;;;6048234;23;20104;-87
2021/04/03 02:53:02;;;;;;;11.63;6.40;;;7.00;58.50;;;;;;6048611;23;20028;-85
2021/04/03 02:55:29;;;;;;;9.30;5.68;;;7.00;58.30;;;;;;6072187;23;20021;-87
2021/04/03 02:57:56;;;;;;;;;;;7.10;58.20;;;;;;6048785;23;20087;-85
2021/04/03 03:00:23;;;;;;;8.85;4.75;;;7.20;58.00;;;;;;6027263;23;20007;-86
2021/04/03 03:02:50;;;;;;;6.82;4.75;;;7.20;57.80;;;;;;6026604;23;20083;-86
2021/04/03 03:05:17;;;;;;;7.72;5.00;;;7.30;57.80;;;;;;6048772;23;20040;-85
2021/04/03 03:07:45;;;;;;;8.32;4.50;;;7.30;57.80;;;;;;6046099;23;20091;-85
2021/04/03 03:10:21;;;;;;;8.18;4.22;;;7.40;57.80;;;;;;6073032;23;20013;-85
2021/04/03 03:12:51;;;;;;;7.25;5.03;;;7.40;57.70;;;;;;6050550;23;20413;-83
2021/04/03 03:15:18;;;;;;;5.55;4.55;;;7.50;57.80;;;;;;6049492;23;20029;-85
2021/04/03 03:17:45;;;;;;;7.85;4.65;;;7.50;58.00;;;;;;5997575;23;20021;-85
2021/04/03 03:20:13;;;;;;;6.40;4.63;;;7.50;58.20;;;;;;6021479;23;20612;-84
2021/04/03 03:22:41;;;;;;;10.80;4.72;;;7.50;58.30;;;;;;6069426;23;20028;-87
2021/04/03 03:25:08;;;;;;;8.05;4.30;;;7.60;58.20;;;;;;6047583;23;20017;-86
2021/04/03 03:27:41;;;;;;;;;;;7.60;58.10;;;;;;6023379;23;20024;-86
2021/04/03 03:30:08;;;;;;;7.75;3.95;;;7.70;57.90;;;;;;6070625;23;20015;-85
2021/04/03 03:32:35;;;;;;;6.43;4.22;;;7.80;57.80;;;;;;6046846;23;20435;-86
2021/04/03 03:35:06;;;;;;;9.18;4.75;;;7.80;57.50;;;;;;6071971;23;20013;-86
2021/04/03 03:37:34;;;;;;;8.57;4.97;;;7.90;57.60;;;;;;6072939;23;20048;-89
2021/04/03 03:40:00;;;;;;;6.00;4.90;;;8.00;57.50;;;;;;6048023;23;20020;-86
2021/04/03 03:42:27;;;;;;;10.48;4.90;;;8.10;57.40;;;;;;6023788;23;20307;-86
2021/04/03 03:44:54;;;;;;;5.22;4.72;;;8.10;57.20;;;;;;6048386;23;20037;-88
2021/04/03 03:47:23;;;;;;;7.15;4.70;;;8.20;57.00;;;;;;6048197;23;20017;-85
2021/04/03 03:49:50;;;;;;;5.95;4.47;;;8.40;56.90;;;;;;6045820;23;20071;-87
2021/04/03 03:52:17;;;;;;;5.40;4.35;;;8.40;56.70;;;;;;6024287;23;20021;-87
2021/04/03 03:54:46;;;;;;;7.00;3.88;;;8.50;56.50;;;;;;5999921;23;20033;-87
2021/04/03 03:57:13;;;;;;;6.25;3.90;;;8.60;56.40;;;;;;6023494;23;20104;-87
2021/04/03 03:59:41;;;;;;;6.45;4.22;;;8.70;56.20;;;;;;6047536;23;20013;-86
2021/04/03 04:02:11;;;;;;;5.50;4.03;;;8.80;57.20;;;;;;6026545;23;20425;-87
2021/04/03 04:04:39;;;;;;;8.15;4.32;;;8.80;56.00;;;;;;6082534;23;20013;-89
2021/04/03 04:07:05;;;;;;;7.00;4.20;;;9.00;55.90;;;;;;6089625;23;20369;-87
2021/04/03 04:09:32;;;;;;;7.68;4.45;;;9.00;55.70;;;;;;6032484;23;20021;-87
2021/04/03 04:12:11;;;;;;;5.97;4.32;;;9.10;55.50;;;;;;6104464;23;20013;-86
2021/04/03 04:14:37;;;;;;;3.13;2.55;;;9.30;55.40;;;;;;6026300;23;20025;-85
2021/04/03 04:17:04;;;;;;;6.78;3.90;;;9.40;55.30;;;;;;6047596;23;20021;-86
2021/04/03 04:19:31;;;;;;;6.85;3.78;;;9.80;55.70;;;;;;6070390;23;20083;-86
2021/04/03 04:21:58;;;;;;;6.38;4.00;;;10.20;54.70;;;;;;6071985;23;20005;-87
2021/04/03 04:24:24;;;;;;;9.18;4.40;;;10.70;55.00;;;;;;6000840;23;20025;-86
2021/04/03 04:26:52;;;;;;;5.10;3.65;;;11.20;54.80;;;;;;6071978;23;20013;-86
2021/04/03 04:29:18;;;;;;;6.03;3.33;;;11.70;52.70;;;;;;6025224;23;20021;-86
2021/04/03 04:31:45;;;;;;;7.85;3.70;;;11.90;50.90;;;;;;6025308;23;20096;-84
2021/04/03 04:34:11;;;;;;;4.05;3.53;;;12.10;49.60;;;;;;6024351;23;20017;-90
2021/04/03 04:36:38;;;;;;;8.13;3.72;;;12.40;49.80;;;;;;6021812;23;20448;-84
2021/04/03 04:39:04;;;;;;;4.63;3.90;;;12.80;49.50;;;;;;6045415;23;20096;-84
2021/04/03 04:41:31;;;;;;;5.28;3.53;;;13.30;48.10;;;;;;6021510;23;20020;-86
2021/04/03 04:43:58;;;;;;;;;;;13.70;47.70;;;;;;6069488;23;20092;-84
2021/04/03 04:46:24;;;;;;;9.70;3.80;;;14.20;47.30;;;;;;6046016;23;19925;-84
2021/04/03 04:48:50;;;;;;;11.68;4.13;;;14.90;45.60;;;;;;6046677;23;20009;-84
2021/04/03 04:51:18;;;;;;;6.60;3.60;;;15.50;44.50;;;;;;6068987;23;20369;-85
2021/04/03 04:53:44;;;;;;;8.65;3.45;;;16.30;42.80;;;;;;6000103;23;20489;-83
2021/04/03 04:56:11;;;;;;;8.93;3.75;;;17.10;40.40;;;;;;6021650;23;20091;-84
2021/04/03 04:58:37;;;;;;;8.27;3.60;;;17.60;38.20;;;;;;5998712;23;20032;-85
2021/04/03 05:01:04;;;;;;;7.07;4.07;;;18.10;35.80;;;;;;6021372;23;20078;-84
2021/04/03 05:03:30;;;;;;;3.75;3.42;;;18.30;34.30;;;;;;6046873;23;20013;-91
2021/04/03 05:05:57;;;;;;;;;;;18.50;34.00;;;;;;6023330;23;20104;-84
2021/04/03 05:08:24;;;;;;;7.57;3.58;;;18.80;33.70;;;;;;6093660;23;19932;-83
2021/04/03 05:10:50;;;;;;;8.45;3.95;;;19.30;33.60;;;;;;6044968;23;20025;-85
2021/04/03 05:13:16;;;;;;;9.30;3.50;;;19.90;32.20;;;;;;6068355;23;20405;-85
2021/04/03 05:15:42;;;;;;;6.15;3.42;;;20.40;30.30;;;;;;6020773;23;20028;-84
2021/04/03 05:18:09;;;;;;;7.90;3.47;;;20.80;30.10;;;;;;6021594;23;20024;-84
2021/04/03 05:20:35;;;;;;;9.65;3.42;;;21.20;28.80;;;;;;6069859;23;20009;-84
2021/04/03 05:23:02;;;;;;;5.68;3.22;;;21.70;28.60;;;;;;6044605;23;20079;-84
2021/04/03 05:25:28;;;;;;;8.57;3.80;;;22.20;27.80;;;;;;6044543;23;20024;-84
2021/04/03 05:27:54;;;;;;;;;;;22.50;26.90;;;;;;6043561;23;20025;-84
2021/04/03 05:30:21;;;;;;;6.13;3.30;;;22.90;27.00;;;;;;6068571;23;19924;-84
2021/04/03 05:32:48;;;;;;;4.22;3.15;;;23.30;25.00;;;;;;6045340;23;20133;-84
2021/04/03 05:35:14;;;;;;;7.43;3.10;;;23.10;24.50;;;;;;6021238;23;20064;-83
2021/04/03 05:37:41;;;;;;;;;;;23.00;24.90;;;;;;6046793;23;20013;-84
2021/04/03 05:40:09;;;;;;;4.75;3.03;;;23.30;25.30;;;;;;6085126;23;20412;-85
2021/04/03 05:42:35;;;;;;;7.45;3.45;;;23.60;24.40;;;;;;6017083;23;20065;-83
2021/04/03 05:45:03;;;;;;;10.48;4.07;;;23.80;24.00;;;;;;6041081;23;20093;-84
2021/04/03 05:47:36;;;;;;;10.25;3.45;;;24.10;23.40;;;;;;6089192;23;20009;-85
2021/04/03 05:50:06;;;;;;;7.82;3.08;;;24.40;22.90;;;;;;6018431;23;20017;-85
2021/04/03 05:52:35;;;;;;;4.90;2.70;;;24.60;22.30;;;;;;6064059;23;20028;-85
2021/04/03 05:55:02;;;;;;;10.90;3.10;;;24.70;21.70;;;;;;6042245;23;20017;-85
2021/04/03 05:57:29;;;;;;;7.40;3.10;;;24.80;22.20;;;;;;6045467;23;20021;-84
2021/04/03 05:59:58;;;;;;;8.52;3.20;;;24.80;21.30;;;;;;6110035;23;20017;-83
2021/04/03 06:02:25;;;;;;;10.52;3.78;;;24.40;21.00;;;;;;6031759;23;20013;-84
2021/04/03 06:04:54;;;;;;;8.52;3.35;;;24.00;21.80;;;;;;6050035;23;20020;-85
2021/04/03 06:07:20;;;;;;;7.78;3.28;;;24.20;22.30;;;;;;6072612;23;20045;-84
2021/04/03 06:09:47;;;;;;;7.13;3.53;;;24.30;21.50;;;;;;6024071;23;20028;-85
2021/04/03 06:12:44;;;;;;;7.57;2.97;;;24.40;21.30;;;;;;6047593;23;20017;-85
2021/04/03 06:15:27;;;;;;;8.48;3.50;;;24.50;21.50;;;;;;6030155;23;20104;-84
2021/04/03 06:17:57;;;;;;;8.85;2.95;;;24.90;21.60;;;;;;6069299;23;20017;-85
2021/04/03 06:20:35;;;;;;;8.73;2.78;;;25.40;20.50;;;;;;6117864;23;20493;-85
2021/04/03 06:23:02;;;;;;;6.13;3.05;;;25.60;20.50;;;;;;6045002;23;20376;-85
2021/04/03 06:25:28;;;;;;;4.30;2.53;;;25.70;20.30;;;;;;6020524;23;20013;-84
2021/04/03 06:28:07;;;;;;;;;;;26.00;20.00;;;;;;6022218;23;20040;-85
2021/04/03 06:30:35;;;;;;;14.38;4.30;;;26.20;20.10;;;;;;6045736;23;20339;-84
2021/04/03 06:33:20;;;;;;;11.02;2.90;;;26.60;19.60;;;;;;6045766;23;20016;-84
2021/04/03 06:36:11;;;;;;;6.78;2.70;;;26.70;19.10;;;;;;6044911;23;20393;-84
2021/04/03 06:38:38;;;;;;;3.95;1.75;;;26.70;19.30;;;;;;6069834;23;20017;-83
2021/04/03 06:41:25;;;;;;;3.03;2.75;;;26.70;19.00;;;;;;5997816;23;20021;-83
2021/04/03 06:44:09;;;;;;;8.52;2.65;;;26.50;18.90;;;;;;6021400;23;20074;-84
2021/04/03 06:46:37;;;;;;;6.22;2.90;;;26.20;18.90;;;;;;6045806;23;20050;-83
2021/04/03 06:49:04;;;;;;;7.72;3.30;;;25.90;19.10;;;;;;6044587;23;20533;-84
2021/04/03 06:51:31;;;;;;;12.50;3.30;;;25.80;19.70;;;;;;6020367;23;20024;-84
2021/04/03 06:53:58;;;;;;;7.82;2.72;;;26.20;20.10;;;;;;6021165;23;20020;-85
2021/04/03 06:56:27;;;;;;;5.78;2.25;;;27.00;18.80;;;;;;6021359;23;20485;-83
2021/04/03 06:59:10;;;;;;;9.98;3.25;;;27.20;18.20;;;;;;6068431;23;20385;-84
2021/04/03 07:01:51;;;;;;;13.40;4.07;;;27.10;18.20;;;;;;6068545;23;20079;-85
2021/04/03 07:04:22;;;;;;;20.77;4.88;;;27.50;18.70;;;;;;6068728;23;20021;-84
2021/04/03 07:06:53;;;;;;;7.93;2.85;;;28.40;18.10;;;;;;6045057;23;20032;-85
2021/04/03 07:09:19;;;;;;;7.95;2.28;;;28.90;17.10;;;;;;6021943;23;20013;-85
2021/04/03 07:11:51;;;;;;;4.57;2.30;;;28.80;16.40;;;;;;6066432;23;20029;-85
2021/04/03 07:14:19;;;;;;;5.53;3.03;;;28.70;16.70;;;;;;6091760;23;20354;-84
2021/04/03 07:16:47;;;;;;;7.80;2.85;;;28.50;16.60;;;;;;6044540;23;20029;-87
2021/04/03 07:19:14;;;;;;;7.13;3.13;;;28.40;16.70;;;;;;6093395;23;20080;-84
2021/04/03 07:21:42;;;;;;;10.55;3.00;;;28.50;16.60;;;;;;6044441;23;20499;-84
2021/04/03 07:24:13;;;;;;;12.02;3.42;;;28.50;16.60;;;;;;6045965;23;20037;-86
2021/04/03 07:26:43;;;;;;;5.38;2.78;;;28.70;16.70;;;;;;6068194;23;20507;-84
2021/04/03 07:29:36;;;;;;;20.40;4.10;;;28.80;16.20;;;;;;6045656;23;20023;-88
2021/04/03 07:32:02;;;;;;;5.18;2.42;;;29.00;16.80;;;;;;6054562;23;20021;-88
2021/04/03 07:34:49;;;;;;;14.82;3.22;;;29.70;16.10;;;;;;6052550;23;20017;-86
2021/04/03 07:37:16;;;;;;;6.85;3.10;;;30.00;15.70;;;;;;6029739;23;20017;-87
2021/04/03 07:39:44;;;;;;;7.28;2.85;;;30.20;15.30;;;;;;6024570;23;20024;-87
2021/04/03 07:42:31;;;;;;;18.52;4.15;;;30.20;14.90;;;;;;6047497;23;20365;-85
2021/04/03 07:44:58;;;;;;;8.00;2.50;;;29.80;15.30;;;;;;6077554;23;20087;-85
2021/04/03 07:47:24;;;;;;;11.30;3.05;;;29.50;15.00;;;;;;6074232;23;20009;-86
2021/04/03 07:49:52;;;;;;;;;;;29.20;15.60;;;;;;6050162;23;20485;-89
2021/04/03 07:52:56;;;;;;;9.75;3.13;;;29.00;15.80;;;;;;6065598;23;19936;-86
2021/04/03 07:55:43;;;;;;;9.57;3.20;;;28.70;16.00;;;;;;6055183;23;20083;-86
2021/04/03 07:58:19;;;;;;;4.90;2.95;;;29.00;16.00;;;;;;6051340;23;20056;-85
2021/04/03 08:00:49;;;;;;;6.28;2.70;;;28.80;15.90;;;;;;6096879;23;20028;-84
2021/04/03 08:03:23;;;;;;;5.68;3.15;;;28.80;16.40;;;;;;6025333;23;20037;-84
2021/04/03 08:05:56;;;;;;;5.75;2.47;;;29.40;16.00;;;;;;6022998;23;20058;-85
2021/04/03 08:08:22;;;;;;;10.07;3.33;;;29.80;15.20;;;;;;6072593;23;20389;-86
2021/04/03 08:10:49;;;;;;;17.27;3.92;;;29.70;15.00;;;;;;6046671;23;20405;-89
2021/04/03 08:13:18;;;;;;;9.32;3.28;;;29.70;15.70;;;;;;6001261;23;20017;-87
2021/04/03 08:15:48;;;;;;;2.30;2.10;;;30.10;15.30;;;;;;6045172;23;20025;-85
2021/04/03 08:18:15;;;;;;;12.55;3.50;;;30.30;14.60;;;;;;6021837;23;20080;-83
2021/04/03 08:20:52;;;;;;;5.72;2.83;;;29.70;14.60;;;;;;6021627;23;20021;-86
2021/04/03 08:23:33;;;;;;;13.18;3.40;;;29.30;15.30;;;;;;6045850;23;20017;-88
2021/04/03 08:25:59;;;;;;;8.68;3.38;;;28.80;15.20;;;;;;6051602;23;20138;-87
2021/04/03 08:28:26;;;;;;;6.13;3.50;;;28.50;15.60;;;;;;6022142;23;20028;-85
2021/04/03 08:30:53;;;;;;;11.13;3.20;;;28.40;16.10;;;;;;6045574;23;20017;-85
2021/04/03 08:33:19;;;;;;;;;;;28.70;16.30;;;;;;6047458;23;20009;-86
2021/04/03 08:35:50;;;;;;;10.32;3.33;;;29.10;15.70;;;;;;6070642;23;19962;-86
2021/04/03 08:38:25;;;;;;;7.90;3.38;;;29.30;15.50;;;;;;6072038;23;20395;-86
2021/04/03 08:40:53;;;;;;;4.15;2.95;;;29.60;15.50;;;;;;6024493;23;20465;-86
2021/04/03 08:43:23;;;;;;;15.38;3.47;;;30.10;15.10;;;;;;6071437;23;20017;-86
2021/04/03 08:45:50;;;;;;;15.70;3.85;;;30.10;14.60;;;;;;6025395;23;20059;-86
2021/04/03 08:48:16;;;;;;;7.82;3.20;;;30.20;16.10;;;;;;6024631;23;20013;-87
2021/04/03 08:50:45;;;;;;;;;;;30.60;14.60;;;;;;6047424;23;20024;-87
2021/04/03 08:53:12;;;;;;;6.10;3.30;;;30.70;14.60;;;;;;6071769;23;19944;-88
2021/04/03 08:55:39;;;;;;;15.75;3.90;;;30.90;14.30;;;;;;6026953;23;20023;-85
2021/04/03 08:58:07;;;;;;;12.27;3.92;;;30.90;13.80;;;;;;6027339;23;20028;-86
2021/04/03 09:00:34;;;;;;;8.60;3.17;;;30.60;14.20;;;;;;6023367;23;20033;-87
2021/04/03 09:03:01;;;;;;;9.98;3.45;;;30.50;14.30;;;;;;6023349;23;20009;-84
2021/04/03 09:05:27;;;;;;;11.10;3.50;;;30.30;14.20;;;;;;6047727;23;20009;-86
2021/04/03 09:07:54;;;;;;;10.45;3.50;;;30.20;14.40;;;;;;6023249;23;20017;-85
2021/04/03 09:10:23;;;;;;;3.70;1.77;;;30.00;14.10;;;;;;6022488;23;20020;-86
2021/04/03 09:12:50;;;;;;;5.35;2.17;;;29.60;14.40;;;;;;6024430;23;20039;-86
2021/04/03 09:15:30;;;;;;;11.98;3.40;;;29.20;15.90;;;;;;6025981;23;20105;-85
2021/04/03 09:17:57;;;;;;;6.13;3.05;;;28.80;15.00;;;;;;6074524;23;20017;-86
2021/04/03 09:20:28;;;;;;;15.63;3.97;;;28.40;15.30;;;;;;6094811;23;20028;-86
2021/04/03 09:23:05;;;;;;;15.52;3.83;;;28.20;15.80;;;;;;6025970;23;20021;-86
2021/04/03 09:25:31;;;;;;;22.05;4.40;;;28.20;16.00;;;;;;6004164;23;20021;-87
2021/04/03 09:28:03;;;;;;;;;;;28.40;15.80;;;;;;6002234;23;20021;-88
2021/04/03 09:30:42;;;;;;;6.43;2.92;;;28.40;15.40;;;;;;6075781;23;20284;-85
2021/04/03 09:33:22;;;;;;;6.28;3.08;;;27.90;15.70;;;;;;6028651;23;20491;-86
2021/04/03 09:36:06;;;;;;;10.75;3.42;;;27.40;16.20;;;;;;6082921;23;20492;-85
2021/04/03 09:38:37;;;;;;;24.73;5.13;;;27.30;16.80;;;;;;6033869;23;20017;-86
2021/04/03 09:41:25;;;;;;;8.52;3.33;;;27.60;16.80;;;;;;6003565;23;20087;-87
2021/04/03 09:43:52;;;;;;;12.60;3.45;;;28.30;16.40;;;;;;6048963;23;20013;-86
2021/04/03 09:46:18;;;;;;;16.83;3.67;;;29.30;15.80;;;;;;6000191;23;20075;-87
2021/04/03 09:48:45;;;;;;;9.82;3.97;;;29.80;14.90;;;;;;6046223;23;20024;-85
2021/04/03 09:51:11;;;;;;;11.90;3.70;;;29.60;14.40;;;;;;6047358;23;20014;-85
2021/04/03 09:53:38;;;;;;;14.85;3.80;;;29.40;14.90;;;;;;6024740;23;20531;-84
2021/04/03 09:56:05;;;;;;;2.97;2.05;;;29.20;15.00;;;;;;6000160;23;20084;-85
2021/04/03 09:58:31;;;;;;;11.63;3.53;;;29.10;14.80;;;;;;6049180;23;20408;-86
2021/04/03 10:00:58;;;;;;;3.63;2.17;;;28.60;15.20;;;;;;6029667;23;20021;-86
2021/04/03 10:03:24;;;;;;;15.73;3.38;;;28.10;15.70;;;;;;6081349;23;20032;-85
2021/04/03 10:05:51;;;;;;;25.73;4.22;;;27.50;16.20;;;;;;6032886;23;20585;-85
2021/04/03 10:08:17;;;;;;;4.30;2.65;;;27.00;17.20;;;;;;6057914;23;20017;-88
2021/04/03 10:10:43;;;;;;;;;;;26.60;17.40;;;;;;6033796;23;20369;-85
2021/04/03 10:13:10;;;;;;;17.15;3.33;;;26.40;18.00;;;;;;6050805;23;19935;-87
2021/04/03 10:15:36;;;;;;;8.27;3.03;;;26.30;17.90;;;;;;6025827;23;20421;-86
2021/04/03 10:18:04;;;;;;;5.15;2.63;;;26.20;18.60;;;;;;6073122;23;20314;-85
2021/04/03 10:20:31;;;;;;;4.65;2.65;;;25.80;17.80;;;;;;6005649;23;20018;-87
2021/04/03 10:22:57;;;;;;;7.53;2.88;;;25.20;18.50;;;;;;6051899;23;20031;-86
2021/04/03 10:25:24;;;;;;;7.25;2.90;;;24.80;19.30;;;;;;6025698;23;20009;-85
2021/04/03 10:27:50;;;;;;;10.85;2.97;;;24.40;20.00;;;;;;6026971;23;20018;-84
2021/04/03 10:30:18;;;;;;;8.73;2.65;;;24.20;20.30;;;;;;6026672;23;20019;-87
2021/04/03 10:32:44;;;;;;;3.90;1.98;;;24.30;20.40;;;;;;6028352;23;20032;-86
2021/04/03 10:35:11;;;;;;;7.68;2.50;;;24.30;20.10;;;;;;6050163;23;20039;-85
2021/04/03 10:37:37;;;;;;;13.63;3.78;;;23.80;20.50;;;;;;6074503;23;20017;-86
2021/04/03 10:40:04;;;;;;;4.93;2.40;;;23.30;21.30;;;;;;6049627;23;20017;-86
2021/04/03 10:42:31;;;;;;;17.05;3.50;;;22.70;22.00;;;;;;6024638;23;20055;-84
2021/04/03 10:44:57;;;;;;;6.78;2.38;;;22.10;22.80;;;;;;6046615;23;20013;-86
2021/04/03 10:47:23;;;;;;;8.18;2.35;;;21.50;23.20;;;;;;6046488;23;20017;-84
2021/04/03 10:49:50;;;;;;;1.98;1.48;;;20.80;23.70;;;;;;6024585;23;20087;-83
2021/04/03 10:52:16;;;;;;;5.03;2.60;;;20.30;24.30;;;;;;6024237;23;20017;-85
2021/04/03 10:54:43;;;;;;;7.90;2.72;;;19.90;24.90;;;;;;6093432;23;20021;-85
2021/04/03 10:57:09;;;;;;;6.07;1.95;;;19.50;25.60;;;;;;6024611;23;20017;-85
2021/04/03 10:59:35;;;;;;;9.20;2.58;;;19.20;26.00;;;;;;6046006;23;20526;-86
2021/04/03 11:02:02;;;;;;;7.45;3.05;;;18.90;26.40;;;;;;6023052;23;20024;-85
2021/04/03 11:04:28;;;;;;;;;;;18.70;26.70;;;;;;6046441;23;20096;-85
2021/04/03 11:06:55;;;;;;;3.75;2.20;;;18.50;27.00;;;;;;6069501;23;20008;-84
2021/04/03 11:09:21;;;;;;;7.60;2.72;;;18.30;27.10;;;;;;6046925;23;20104;-86
2021/04/03 11:11:47;;;;;;;22.58;3.40;;;18.20;27.30;;;;;;6046868;23;20013;-84
2021/04/03 11:14:14;;;;;;;4.63;2.47;;;18.00;27.50;;;;;;6071205;23;20523;-84
2021/04/03 11:16:40;;;;;;;2.53;1.75;;;17.90;27.70;;;;;;6046517;23;20025;-85
2021/04/03 11:19:07;;;;;;;4.50;1.83;;;17.80;28.00;;;;;;6047905;23;20100;-85
2021/04/03 11:21:33;;;;;;;10.48;2.58;;;17.60;27.70;;;;;;6072785;23;20477;-85
2021/04/03 11:23:59;;;;;;;4.43;1.92;;;17.30;28.00;;;;;;6046322;23;20060;-84
2021/04/03 11:26:25;;;;;;;9.73;2.50;;;17.10;28.60;;;;;;6022953;23;20013;-84
2021/04/03 11:28:52;;;;;;;4.40;1.80;;;16.90;29.00;;;;;;6023827;23;20079;-84
2021/04/03 11:31:18;;;;;;;5.85;2.42;;;16.70;29.40;;;;;;6075054;23;20021;-84
2021/04/03 11:33:44;;;;;;;5.90;2.63;;;16.60;29.40;;;;;;6092106;23;20043;-85
2021/04/03 11:36:12;;;;;;;10.65;2.40;;;16.50;29.50;;;;;;6044127;23;20084;-84
2021/04/03 11:38:38;;;;;;;4.43;2.03;;;16.50;29.40;;;;;;6035787;23;20115;-83
2021/04/03 11:41:05;;;;;;;;;;;16.60;29.20;;;;;;6005357;23;20028;-84
2021/04/03 11:43:31;;;;;;;12.35;2.22;;;16.60;29.10;;;;;;6099874;23;19921;-84
2021/04/03 11:45:57;;;;;;;0.90;0.90;;;16.60;28.90;;;;;;6030113;23;20080;-85
2021/04/03 11:48:24;;;;;;;5.20;1.75;;;16.60;28.50;;;;;;6026031;23;20009;-86
2021/04/03 11:50:50;;;;;;;5.25;2.35;;;16.40;28.50;;;;;;6028178;23;20449;-86
2021/04/03 11:53:16;;;;;;;9.38;2.08;;;16.30;28.80;;;;;;6004900;23;20017;-85
2021/04/03 11:55:42;;;;;;;8.25;1.90;;;16.30;28.80;;;;;;6048053;23;20028;-85
2021/04/03 11:58:09;;;;;;;8.90;1.77;;;16.30;28.80;;;;;;6023595;23;20052;-84
2021/04/03 12:00:35;;;;;;;3.15;1.17;;;16.20;28.80;;;;;;6049307;23;20028;-85
2021/04/03 12:03:02;;;;;;;2.15;1.60;;;16.20;28.60;;;;;;6070767;23;20024;-84
2021/04/03 12:05:28;;;;;;;;;;;16.10;28.80;;;;;;6071018;23;20016;-84
2021/04/03 12:07:56;;;;;;;6.80;2.03;;;16.00;28.90;;;;;;6069928;23;19921;-85
2021/04/03 12:10:22;;;;;;;7.28;2.10;;;15.90;29.20;;;;;;6046353;23;20025;-86
2021/04/03 12:12:49;;;;;;;6.78;1.80;;;15.90;29.40;;;;;;6022416;23;20040;-84
2021/04/03 12:15:15;;;;;;;5.50;1.67;;;15.80;29.70;;;;;;6022664;23;20369;-83
2021/04/03 12:17:42;;;;;;;4.80;2.03;;;15.80;29.90;;;;;;6047564;23;20017;-84
2021/04/03 12:20:10;;;;;;;13.00;2.90;;;15.60;30.10;;;;;;6070100;23;20104;-84
2021/04/03 12:22:37;;;;;;;3.47;1.80;;;15.60;30.60;;;;;;6022687;23;20473;-84
2021/04/03 12:25:04;;;;;;;7.60;2.88;;;15.60;30.60;;;;;;6024543;23;20480;-85
2021/04/03 12:27:31;;;;;;;4.38;2.05;;;15.50;30.80;;;;;;5999146;23;20017;-85
2021/04/03 12:29:57;;;;;;;7.88;2.03;;;15.50;31.10;;;;;;6022763;23;20094;-88
2021/04/03 12:32:23;;;;;;;8.68;1.60;;;15.40;31.30;;;;;;6022791;23;20013;-84
2021/04/03 12:34:49;;;;;;;11.10;2.35;;;15.40;31.40;;;;;;6023156;23;20480;-83
2021/04/03 12:37:18;;;;;;;8.05;2.00;;;15.40;31.50;;;;;;6000977;23;20100;-85
2021/04/03 12:39:44;;;;;;;4.55;1.95;;;15.40;31.60;;;;;;6025897;23;20009;-85
2021/04/03 12:42:10;;;;;;;12.25;2.65;;;15.40;31.70;;;;;;6023307;23;20072;-85
2021/04/03 12:44:37;;;;;;;8.65;2.10;;;15.30;31.80;;;;;;5999785;23;20028;-86
2021/04/03 12:47:04;;;;;;;6.53;1.63;;;15.30;32.00;;;;;;6076974;23;20476;-86
2021/04/03 12:49:31;;;;;;;5.88;2.05;;;15.20;32.30;;;;;;6076505;23;20421;-83
2021/04/03 12:51:57;;;;;;;4.72;1.70;;;15.10;32.50;;;;;;6047906;23;20013;-83
2021/04/03 12:54:24;;;;;;;10.48;2.17;;;15.10;32.80;;;;;;6070246;23;20416;-84
2021/04/03 12:56:50;;;;;;;9.10;1.80;;;15.00;32.90;;;;;;6071182;23;20013;-85
2021/04/03 12:59:17;;;;;;;11.25;2.70;;;14.90;33.20;;;;;;6070085;23;20020;-85
2021/04/03 13:01:43;;;;;;;9.82;2.67;;;14.90;33.10;;;;;;6022956;23;20017;-85
2021/04/03 13:04:10;;;;;;;6.60;2.42;;;14.90;33.20;;;;;;6023012;23;20048;-84